createdAt,value
2023-01-25T00:00:07.767Z,100329.00
2023-01-25T00:02:34.459Z,100359.47
2023-01-25T00:05:01.124Z,100320.84
2023-01-25T00:07:27.798Z,100339.94
2023-01-25T00:09:54.427Z,100327.72
2023-01-25T00:12:21.116Z,100391.41
2023-01-25T00:14:47.747Z,100371.50
2023-01-25T00:17:14.429Z,100349.16
2023-01-25T00:19:41.008Z,100337.88
2023-01-25T00:22:07.764Z,100386.13
2023-01-25T00:24:34.435Z,100349.84
2023-01-25T00:27:02.572Z,100307.28
2023-01-25T00:29:31.562Z,100335.28
2023-01-25T00:32:02.431Z,100385.22
2023-01-25T00:34:44.877Z,100372.25
2023-01-25T00:37:28.893Z,100380.00
2023-01-25T00:39:57.422Z,100347.41
2023-01-25T00:42:24.098Z,100380.91
2023-01-25T00:44:50.927Z,100350.22
2023-01-25T00:47:20.163Z,100374.78
2023-01-25T00:49:47.073Z,100367.88
2023-01-25T00:52:14.218Z,100351.63
2023-01-25T00:54:41.312Z,100362.41
2023-01-25T00:57:08.996Z,100363.34
2023-01-25T00:59:35.929Z,100361.56
2023-01-25T01:02:03.639Z,100349.22
2023-01-25T01:04:30.704Z,100327.00
2023-01-25T01:06:57.327Z,100343.25
2023-01-25T01:09:24.828Z,100353.69
2023-01-25T01:11:53.280Z,100293.41
2023-01-25T01:14:21.179Z,100350.19
2023-01-25T01:16:48.229Z,100330.38
2023-01-25T01:19:15.847Z,100326.75
2023-01-25T01:21:42.569Z,100340.44
2023-01-25T01:24:10.970Z,100339.56
2023-01-25T01:26:37.869Z,100300.59
2023-01-25T01:29:04.869Z,100304.63
2023-01-25T01:31:31.802Z,100298.78
2023-01-25T01:34:20.328Z,100298.41
2023-01-25T01:36:49.962Z,100300.00
2023-01-25T01:39:17.013Z,100297.44
2023-01-25T01:41:43.900Z,100292.06
2023-01-25T01:44:20.395Z,100293.88
2023-01-25T01:46:58.825Z,100201.06
2023-01-25T01:49:32.637Z,100225.38
2023-01-25T01:52:14.931Z,100293.00
2023-01-25T01:55:13.901Z,100293.91
2023-01-25T01:57:47.026Z,100284.22
2023-01-25T02:00:19.154Z,100255.81
2023-01-25T02:02:46.667Z,100279.84
2023-01-25T02:05:27.725Z,100241.94
2023-01-25T02:07:55.927Z,100271.06
2023-01-25T02:10:26.856Z,100252.34
2023-01-25T02:12:56.670Z,100241.88
2023-01-25T02:15:23.727Z,100181.69
2023-01-25T02:17:51.506Z,100211.53
2023-01-25T02:20:37.717Z,100265.06
2023-01-25T02:23:13.796Z,100268.47
2023-01-25T02:25:41.652Z,100235.81
2023-01-25T02:28:18.746Z,100265.00
2023-01-25T02:30:46.018Z,100228.88
2023-01-25T02:33:13.197Z,100244.56
2023-01-25T02:35:39.815Z,100274.69
2023-01-25T02:38:07.410Z,100228.34
2023-01-25T02:40:43.148Z,100252.50
2023-01-25T02:43:09.895Z,100273.84
2023-01-25T02:45:36.582Z,100266.09
2023-01-25T02:48:03.312Z,100269.66
2023-01-25T02:50:29.943Z,100215.63
2023-01-25T02:52:56.545Z,100227.66
2023-01-25T02:55:23.182Z,100268.63
2023-01-25T02:57:49.980Z,100267.03
2023-01-25T03:00:17.786Z,100223.31
2023-01-25T03:02:45.592Z,100258.91
2023-01-25T03:05:12.593Z,100248.78
2023-01-25T03:07:39.260Z,100229.75
2023-01-25T03:10:08.657Z,100261.63
2023-01-25T03:12:36.053Z,100266.91
2023-01-25T03:15:02.824Z,100267.81
2023-01-25T03:17:31.189Z,100226.66
2023-01-25T03:19:57.815Z,100219.66
2023-01-25T03:22:25.529Z,100247.28
2023-01-25T03:24:52.407Z,100219.72
2023-01-25T03:27:19.278Z,100224.94
2023-01-25T03:29:50.186Z,100123.59
2023-01-25T03:32:21.647Z,100240.38
2023-01-25T03:34:49.132Z,100260.03
2023-01-25T03:37:16.972Z,100240.38
2023-01-25T03:39:44.227Z,100259.16
2023-01-25T03:42:11.716Z,100253.09
2023-01-25T03:44:38.668Z,100252.16
2023-01-25T03:47:05.846Z,100203.91
2023-01-25T03:49:33.217Z,100246.88
2023-01-25T03:52:00.993Z,100224.44
2023-01-25T03:54:37.402Z,100242.50
2023-01-25T03:57:04.064Z,100167.81
2023-01-25T03:59:37.210Z,100197.06
2023-01-25T04:02:04.308Z,100224.47
2023-01-25T04:04:30.871Z,100239.28
2023-01-25T04:06:58.010Z,100194.34
2023-01-25T04:09:25.207Z,100230.25
2023-01-25T04:11:55.149Z,100231.19
2023-01-25T04:14:35.061Z,100176.06
2023-01-25T04:17:08.267Z,100194.91
2023-01-25T04:19:53.700Z,100221.53
2023-01-25T04:22:25.291Z,100151.31
2023-01-25T04:24:54.695Z,100205.03
2023-01-25T04:27:21.315Z,100186.25
2023-01-25T04:30:08.986Z,100186.16
2023-01-25T04:32:37.081Z,100205.97
2023-01-25T04:35:14.280Z,100207.69
2023-01-25T04:37:41.246Z,100204.16
2023-01-25T04:40:09.424Z,100196.34
2023-01-25T04:42:41.941Z,100201.56
2023-01-25T04:45:09.776Z,100168.09
2023-01-25T04:47:36.921Z,100127.75
2023-01-25T04:50:07.424Z,100132.13
2023-01-25T04:52:34.173Z,100140.44
2023-01-25T04:55:00.693Z,100153.56
2023-01-25T04:57:28.909Z,100154.22
2023-01-25T04:59:55.611Z,100151.47
2023-01-25T05:02:23.704Z,100169.56
2023-01-25T05:04:52.991Z,100191.84
2023-01-25T05:07:20.782Z,100197.13
2023-01-25T05:09:47.333Z,100135.16
2023-01-25T05:12:14.172Z,100179.91
2023-01-25T05:14:52.254Z,100198.03
2023-01-25T05:17:20.768Z,100137.72
2023-01-25T05:19:47.764Z,100175.53
2023-01-25T05:22:20.723Z,100189.41
2023-01-25T05:24:50.862Z,100177.13
2023-01-25T05:27:20.341Z,100188.34
2023-01-25T05:29:53.080Z,100186.63
2023-01-25T05:32:23.952Z,100176.25
2023-01-25T05:34:51.057Z,100178.78
2023-01-25T05:37:20.470Z,100170.88
2023-01-25T05:39:52.800Z,100174.41
2023-01-25T05:42:19.707Z,100172.69
2023-01-25T05:44:48.087Z,100158.19
2023-01-25T05:47:17.757Z,100165.13
2023-01-25T05:49:45.025Z,100153.09
2023-01-25T05:52:18.389Z,100166.66
2023-01-25T05:54:45.193Z,100130.97
2023-01-25T05:57:14.667Z,100183.34
2023-01-25T05:59:41.740Z,100179.84
2023-01-25T06:02:10.586Z,100181.63
2023-01-25T06:04:37.704Z,100170.31
2023-01-25T06:07:04.822Z,100176.59
2023-01-25T06:09:32.651Z,100170.75
2023-01-25T06:11:59.201Z,100185.19
2023-01-25T06:14:25.873Z,100161.16
2023-01-25T06:16:52.723Z,100192.25
2023-01-25T06:19:37.725Z,100174.03
2023-01-25T06:22:22.163Z,100180.03
2023-01-25T06:24:48.870Z,100145.63
2023-01-25T06:27:15.562Z,100164.72
2023-01-25T06:29:44.442Z,100119.03
2023-01-25T06:32:11.145Z,100165.22
2023-01-25T06:34:38.075Z,100123.31
2023-01-25T06:37:08.339Z,100064.13
2023-01-25T06:39:35.138Z,100110.00
2023-01-25T06:42:01.741Z,100168.56
2023-01-25T06:44:29.915Z,100106.09
2023-01-25T06:46:58.012Z,100159.97
2023-01-25T06:49:24.796Z,100089.63
2023-01-25T06:51:51.401Z,100105.81
2023-01-25T06:54:18.071Z,100149.41
2023-01-25T06:56:44.670Z,100159.19
2023-01-25T06:59:11.374Z,100061.13
2023-01-25T07:01:38.075Z,100161.63
2023-01-25T07:04:04.921Z,100103.28
2023-01-25T07:09:14.513Z,100123.78
2023-01-25T07:11:41.256Z,100135.03
2023-01-25T07:14:07.812Z,100142.63
2023-01-25T07:16:37.217Z,100097.09
2023-01-25T07:19:13.941Z,100155.63
2023-01-25T07:21:40.776Z,100156.47
2023-01-25T07:24:29.055Z,100146.84
2023-01-25T07:26:56.775Z,100130.59
2023-01-25T07:29:23.507Z,100142.47
2023-01-25T07:31:50.316Z,100117.59
2023-01-25T07:34:17.103Z,100119.59
2023-01-25T07:36:47.063Z,100141.81
2023-01-25T07:39:13.839Z,100096.44
2023-01-25T07:41:40.970Z,100126.91
2023-01-25T07:44:12.460Z,100143.19
2023-01-25T07:46:51.268Z,100132.63
2023-01-25T07:49:18.318Z,100079.47
2023-01-25T07:51:44.838Z,100119.50
2023-01-25T07:54:12.410Z,100097.22
2023-01-25T07:56:40.435Z,100089.47
2023-01-25T07:59:09.920Z,100111.66
2023-01-25T08:01:37.401Z,100125.72
2023-01-25T08:04:05.342Z,100116.03
2023-01-25T08:06:35.980Z,100113.38
2023-01-25T08:09:20.243Z,100114.22
2023-01-25T08:11:49.268Z,100105.59
2023-01-25T08:14:16.010Z,100105.72
2023-01-25T08:16:42.712Z,100076.50
2023-01-25T08:19:10.966Z,100108.75
2023-01-25T08:21:39.124Z,100099.94
2023-01-25T08:24:27.099Z,100098.13
2023-01-25T08:26:53.799Z,100071.25
2023-01-25T08:29:20.350Z,100072.91
2023-01-25T08:31:46.995Z,100097.00
2023-01-25T08:34:14.944Z,100096.00
2023-01-25T08:36:41.627Z,100098.56
2023-01-25T08:39:10.785Z,100070.91
2023-01-25T08:41:39.797Z,100092.41
2023-01-25T08:44:06.288Z,100064.72
2023-01-25T08:46:34.363Z,100059.63
2023-01-25T08:49:02.311Z,100095.88
2023-01-25T08:51:31.513Z,100084.13
2023-01-25T08:54:06.028Z,100051.59
2023-01-25T08:56:33.549Z,100078.91
2023-01-25T08:59:00.089Z,100083.03
2023-01-25T09:01:26.689Z,100084.72
2023-01-25T09:03:54.837Z,100074.44
2023-01-25T09:08:44.140Z,100090.72
2023-01-25T09:11:14.588Z,100078.28
2023-01-25T09:13:44.431Z,100078.19
2023-01-25T09:16:13.624Z,100071.16
2023-01-25T09:18:43.166Z,100075.34
2023-01-25T09:21:15.490Z,100070.00
2023-01-25T09:23:51.118Z,100070.78
2023-01-25T09:26:31.534Z,100061.84
2023-01-25T09:29:01.612Z,100061.84
2023-01-25T09:31:29.310Z,100054.84
2023-01-25T09:34:01.861Z,100058.22
2023-01-25T09:36:28.529Z,100049.28
2023-01-25T09:38:55.670Z,100053.59
2023-01-25T09:42:00.823Z,100049.94
2023-01-25T09:44:45.075Z,100044.50
2023-01-25T09:47:25.942Z,100008.00
2023-01-25T09:50:25.094Z,100034.63
2023-01-25T09:53:15.347Z,100032.78
2023-01-25T09:55:42.097Z,100023.94
2023-01-25T09:58:14.497Z,100019.41
2023-01-25T10:00:48.068Z,100015.84
2023-01-25T10:03:23.426Z,100007.00
2023-01-25T10:05:54.269Z,99999.44
2023-01-25T10:08:32.869Z,100011.25
2023-01-25T10:11:12.075Z,99999.91
2023-01-25T10:13:42.735Z,99990.03
2023-01-25T10:16:32.934Z,99982.97
2023-01-25T10:19:15.260Z,99981.19
2023-01-25T10:21:55.244Z,99978.44
2023-01-25T10:24:45.030Z,99979.31
2023-01-25T10:27:20.402Z,99966.13
2023-01-25T10:29:50.823Z,99942.00
2023-01-25T10:32:32.009Z,99947.03
2023-01-25T10:35:15.589Z,99960.66
2023-01-25T10:37:47.018Z,99956.25
2023-01-25T10:40:23.296Z,99957.97
2023-01-25T10:43:07.035Z,99931.19
2023-01-25T10:45:33.646Z,99952.59
2023-01-25T10:48:08.322Z,99899.38
2023-01-25T10:50:47.026Z,99948.00
2023-01-25T10:53:25.634Z,99946.19
2023-01-25T10:55:57.645Z,99946.13
2023-01-25T10:58:33.479Z,99954.94
2023-01-25T11:01:01.118Z,99951.41
2023-01-25T11:03:41.974Z,99941.84
2023-01-25T11:06:09.515Z,99939.38
2023-01-25T11:08:43.119Z,99927.69
2023-01-25T11:11:36.962Z,99918.44
2023-01-25T11:14:17.334Z,99920.63
2023-01-25T11:16:48.198Z,99893.94
2023-01-25T11:19:36.358Z,99904.78
2023-01-25T11:22:21.379Z,99904.78
2023-01-25T11:24:48.037Z,99892.56
2023-01-25T11:27:25.960Z,99877.06
2023-01-25T11:30:11.786Z,99878.41
2023-01-25T11:32:39.787Z,99882.59
2023-01-25T11:35:21.225Z,99879.03
2023-01-25T11:38:06.203Z,99871.94
2023-01-25T11:40:44.780Z,99878.94
2023-01-25T11:44:05.778Z,99866.66
2023-01-25T11:46:45.876Z,99863.03
2023-01-25T11:49:31.041Z,99859.47
2023-01-25T11:52:22.699Z,99853.25
2023-01-25T11:55:15.413Z,99853.28
2023-01-25T11:57:54.406Z,99857.59
2023-01-25T12:00:23.944Z,99852.31
2023-01-25T12:02:59.284Z,99846.06
2023-01-25T12:05:28.732Z,99840.78
2023-01-25T12:08:33.019Z,99845.13
2023-01-25T12:11:09.491Z,99839.09
2023-01-25T12:14:00.010Z,99833.72
2023-01-25T12:16:44.664Z,99807.66
2023-01-25T12:19:34.670Z,99810.75
2023-01-25T12:22:01.185Z,99803.06
2023-01-25T12:25:05.040Z,99813.31
2023-01-25T12:27:52.114Z,99758.44
2023-01-25T12:30:27.172Z,99804.63
2023-01-25T12:33:20.898Z,99805.47
2023-01-25T12:35:54.839Z,99795.75
2023-01-25T12:38:35.042Z,99789.50
2023-01-25T12:41:23.202Z,99780.75
2023-01-25T12:44:33.506Z,99785.09
2023-01-25T12:47:20.759Z,99778.00
2023-01-25T12:49:55.660Z,99766.91
2023-01-25T12:52:39.682Z,99782.28
2023-01-25T12:55:13.141Z,99776.28
2023-01-25T12:57:49.168Z,99764.78
2023-01-25T13:00:40.546Z,99766.41
2023-01-25T13:03:26.387Z,99765.56
2023-01-25T13:06:22.156Z,99765.56
2023-01-25T13:09:01.642Z,99769.13
2023-01-25T13:11:37.002Z,99767.38
2023-01-25T13:14:31.310Z,99770.75
2023-01-25T13:17:23.017Z,99765.47
2023-01-25T13:19:51.557Z,99748.31
2023-01-25T13:22:43.161Z,99762.84
2023-01-25T13:25:15.876Z,99760.19
2023-01-25T13:27:42.567Z,99754.91
2023-01-25T13:30:27.126Z,99756.69
2023-01-25T13:35:33.014Z,99737.59
2023-01-25T13:38:08.549Z,99738.19
2023-01-25T13:40:38.158Z,99728.53
2023-01-25T13:43:22.351Z,99731.19
2023-01-25T13:45:52.157Z,99710.56
2023-01-25T13:48:22.643Z,99730.34
2023-01-25T13:50:53.566Z,99709.53
2023-01-25T13:53:23.067Z,99717.28
2023-01-25T13:55:58.232Z,99722.41
2023-01-25T13:58:31.904Z,99715.31
2023-01-25T14:01:13.439Z,99718.91
2023-01-25T14:04:11.586Z,99717.97
2023-01-25T14:06:41.103Z,99710.13
2023-01-25T14:09:22.727Z,99697.97
2023-01-25T14:11:57.696Z,99710.13
2023-01-25T14:14:34.252Z,99686.03
2023-01-25T14:17:22.180Z,99703.03
2023-01-25T14:19:55.741Z,99689.22
2023-01-25T14:22:32.434Z,99691.53
2023-01-25T14:25:16.941Z,99697.66
2023-01-25T14:27:47.026Z,99687.94
2023-01-25T14:30:18.213Z,99682.22
2023-01-25T14:32:44.953Z,99686.13
2023-01-25T14:35:42.272Z,99692.31
2023-01-25T14:38:21.007Z,99680.78
2023-01-25T14:40:49.175Z,99674.97
2023-01-25T14:43:17.731Z,99685.22
2023-01-25T14:45:45.158Z,99686.09
2023-01-25T14:48:41.640Z,99682.56
2023-01-25T14:51:17.185Z,99675.66
2023-01-25T14:53:50.830Z,99678.06
2023-01-25T14:56:48.596Z,99674.38
2023-01-25T14:59:41.578Z,99677.63
2023-01-25T15:02:14.370Z,99668.66
2023-01-25T15:05:15.780Z,99666.78
2023-01-25T15:07:45.734Z,99664.84
2023-01-25T15:10:18.880Z,99665.66
2023-01-25T15:13:04.210Z,99660.28
2023-01-25T15:18:40.688Z,99656.63
2023-01-25T15:21:18.652Z,99679.44
2023-01-25T15:23:47.710Z,99658.16
2023-01-25T15:26:22.047Z,99651.00
2023-01-25T15:28:50.709Z,99649.97
2023-01-25T15:31:32.876Z,99643.91
2023-01-25T15:34:01.423Z,99600.81
2023-01-25T15:36:32.398Z,99638.09
2023-01-25T15:38:59.516Z,99628.72
2023-01-25T15:41:26.072Z,99631.78
2023-01-25T15:43:52.773Z,99643.69
2023-01-25T15:46:22.703Z,99639.44
2023-01-25T15:48:51.457Z,99633.47
2023-01-25T15:51:21.667Z,99638.13
2023-01-25T15:53:48.882Z,99627.28
2023-01-25T15:56:24.199Z,99630.63
2023-01-25T15:58:54.264Z,99626.94
2023-01-25T16:01:27.282Z,99606.88
2023-01-25T16:03:55.755Z,99620.53
2023-01-25T16:06:41.723Z,99609.88
2023-01-25T16:09:17.186Z,99602.44
2023-01-25T16:11:44.408Z,99606.09
2023-01-25T16:14:11.396Z,99569.25
2023-01-25T16:16:44.167Z,99602.31
2023-01-25T16:19:15.764Z,99585.97
2023-01-25T16:21:42.975Z,99592.50
2023-01-25T16:24:11.103Z,99590.03
2023-01-25T16:26:40.464Z,99591.47
2023-01-25T16:29:09.946Z,99555.66
2023-01-25T16:31:36.652Z,99577.75
2023-01-25T16:34:03.295Z,99577.75
2023-01-25T16:36:31.341Z,99600.56
2023-01-25T16:39:09.730Z,99571.97
2023-01-25T16:41:36.712Z,99593.28
2023-01-25T16:44:03.268Z,99598.50
2023-01-25T16:46:30.128Z,99575.03
2023-01-25T16:48:58.900Z,99569.34
2023-01-25T16:51:28.731Z,99552.69
2023-01-25T16:54:00.513Z,99551.50
2023-01-25T16:56:29.737Z,99559.78
2023-01-25T16:59:00.322Z,99564.91
2023-01-25T17:01:27.708Z,99562.38
2023-01-25T17:03:55.752Z,99554.50
2023-01-25T17:06:31.189Z,99551.94
2023-01-25T17:09:04.048Z,99545.03
2023-01-25T17:11:35.979Z,99536.81
2023-01-25T17:14:03.376Z,99530.84
2023-01-25T17:16:30.930Z,99538.03
2023-01-25T17:19:06.717Z,99536.03
2023-01-25T17:21:34.074Z,99542.38
2023-01-25T17:24:01.676Z,99533.88
2023-01-25T17:26:30.844Z,99535.69
2023-01-25T17:28:59.060Z,99536.72
2023-01-25T17:31:35.187Z,99531.81
2023-01-25T17:34:04.207Z,99514.66
2023-01-25T17:36:30.758Z,99495.88
2023-01-25T17:39:01.829Z,99532.13
2023-01-25T17:41:28.508Z,99523.56
2023-01-25T17:43:55.026Z,99523.69
2023-01-25T17:46:26.208Z,99501.19
2023-01-25T17:48:53.583Z,99496.16
2023-01-25T17:51:20.587Z,99506.38
2023-01-25T17:53:47.504Z,99468.66
2023-01-25T17:56:14.322Z,99494.28
2023-01-25T17:58:41.602Z,99489.19
2023-01-25T18:01:20.328Z,99493.59
2023-01-25T18:03:48.683Z,99492.00
2023-01-25T18:06:18.405Z,99499.94
2023-01-25T18:08:48.256Z,99502.78
2023-01-25T18:13:50.142Z,99472.41
2023-01-25T18:16:20.114Z,99432.78
2023-01-25T18:18:46.658Z,99475.94
2023-01-25T18:21:16.194Z,99480.34
2023-01-25T18:23:46.855Z,99479.50
2023-01-25T18:26:22.270Z,99470.81
2023-01-25T18:28:50.707Z,99459.47
2023-01-25T18:31:18.650Z,99459.66
2023-01-25T18:33:45.383Z,99464.00
2023-01-25T18:36:17.792Z,99461.34
2023-01-25T18:38:45.559Z,99441.69
2023-01-25T18:41:12.442Z,99452.66
2023-01-25T18:43:39.305Z,99457.09
2023-01-25T18:46:06.243Z,99410.28
2023-01-25T18:48:33.469Z,99430.72
2023-01-25T18:51:05.907Z,99405.94
2023-01-25T18:53:34.211Z,99422.13
2023-01-25T18:56:07.837Z,99444.25
2023-01-25T18:58:36.818Z,99424.91
2023-01-25T19:01:07.658Z,99434.69
2023-01-25T19:03:35.081Z,99415.13
2023-01-25T19:06:02.211Z,99438.53
2023-01-25T19:08:29.551Z,99429.56
2023-01-25T19:11:06.023Z,99423.44
2023-01-25T19:13:34.060Z,99428.84
2023-01-25T19:16:01.453Z,99423.03
2023-01-25T19:18:33.107Z,99414.28
2023-01-25T19:21:06.999Z,99423.63
2023-01-25T19:23:35.192Z,99414.84
2023-01-25T19:26:02.102Z,99413.34
2023-01-25T19:28:32.259Z,99413.13
2023-01-25T19:31:07.047Z,99408.69
2023-01-25T19:33:34.297Z,99405.19
2023-01-25T19:36:04.199Z,99406.16
2023-01-25T19:38:32.371Z,99395.66
2023-01-25T19:41:09.881Z,99403.41
2023-01-25T19:43:37.008Z,99392.09
2023-01-25T19:46:24.735Z,99389.34
2023-01-25T19:49:00.630Z,99368.81
2023-01-25T19:51:39.495Z,99390.28
2023-01-25T19:54:09.861Z,99389.34
2023-01-25T19:56:39.525Z,99379.13
2023-01-25T19:59:10.013Z,99382.59
2023-01-25T20:01:43.886Z,99383.22
2023-01-25T20:04:22.120Z,99388.41
2023-01-25T20:06:52.834Z,99383.94
2023-01-25T20:09:20.404Z,99388.31
2023-01-25T20:11:47.508Z,99370.34
2023-01-25T20:14:15.207Z,99371.47
2023-01-25T20:16:44.184Z,99366.56
2023-01-25T20:19:12.228Z,99379.44
2023-01-25T20:21:39.764Z,99368.06
2023-01-25T20:24:07.407Z,99352.69
2023-01-25T20:28:53.187Z,99359.31
2023-01-25T20:31:41.662Z,99361.38
2023-01-25T20:34:12.640Z,99365.38
2023-01-25T20:36:39.877Z,99357.44
2023-01-25T20:39:07.882Z,99352.13
2023-01-25T20:41:35.536Z,99351.28
2023-01-25T20:44:09.958Z,99358.25
2023-01-25T20:46:41.435Z,99359.19
2023-01-25T20:49:15.665Z,99334.28
2023-01-25T20:51:42.932Z,99350.34
2023-01-25T20:54:09.694Z,99336.72
2023-01-25T20:56:36.722Z,99318.94
2023-01-25T20:59:04.084Z,99351.28
2023-01-25T21:01:38.374Z,99336.72
2023-01-25T21:04:09.323Z,99344.28
2023-01-25T21:06:36.482Z,99346.91
2023-01-25T21:09:04.015Z,99328.06
2023-01-25T21:11:31.188Z,99341.63
2023-01-25T21:13:59.478Z,99340.78
2023-01-25T21:16:26.990Z,99333.03
2023-01-25T21:18:56.288Z,99325.09
2023-01-25T21:21:28.055Z,99321.50
2023-01-25T21:23:57.783Z,99325.88
2023-01-25T21:26:26.554Z,99320.69
2023-01-25T21:28:57.827Z,99325.97
2023-01-25T21:31:32.897Z,99312.34
2023-01-25T21:34:00.688Z,99321.63
2023-01-25T21:36:27.581Z,99316.69
2023-01-25T21:38:55.339Z,99309.72
2023-01-25T21:41:29.024Z,99317.25
2023-01-25T21:44:29.712Z,99318.97
2023-01-25T21:47:23.648Z,99314.63
2023-01-25T21:50:01.855Z,99294.03
2023-01-25T21:52:28.501Z,99243.84
2023-01-25T21:54:55.013Z,99294.78
2023-01-25T21:57:21.654Z,99306.78
2023-01-25T21:59:48.922Z,99305.09
2023-01-25T22:02:15.746Z,99282.03
2023-01-25T22:04:42.455Z,99304.97
2023-01-25T22:07:09.702Z,99257.75
2023-01-25T22:11:50.853Z,99287.50
2023-01-25T22:14:23.305Z,99289.13
2023-01-25T22:16:51.496Z,99265.34
2023-01-25T22:19:18.380Z,99272.97
2023-01-25T22:21:45.499Z,99282.22
2023-01-25T22:24:12.496Z,99271.38
2023-01-25T22:27:04.550Z,99276.09
2023-01-25T22:29:34.131Z,99259.94
2023-01-25T22:32:00.781Z,99260.50
2023-01-25T22:34:27.464Z,99260.63
2023-01-25T22:36:54.110Z,99244.53
2023-01-25T22:39:20.787Z,99223.00
2023-01-25T22:41:47.749Z,99258.63
2023-01-25T22:44:14.699Z,99259.00
2023-01-25T22:46:41.283Z,99261.34
2023-01-25T22:49:08.129Z,99247.56
2023-01-25T22:51:34.836Z,99239.84
2023-01-25T22:54:01.600Z,99234.63
2023-01-25T22:56:31.928Z,99244.75
2023-01-25T22:58:59.789Z,99249.16
2023-01-25T23:01:29.361Z,99243.03
2023-01-25T23:03:59.131Z,99240.78
2023-01-25T23:06:31.642Z,99240.50
2023-01-25T23:09:00.133Z,99235.28
2023-01-25T23:11:32.065Z,99235.28
2023-01-25T23:14:18.393Z,99221.69
2023-01-25T23:16:45.186Z,99236.25
2023-01-25T23:19:11.948Z,99231.03
2023-01-25T23:21:38.678Z,99212.53
2023-01-25T23:24:05.649Z,99203.19
2023-01-25T23:26:37.875Z,99187.78
2023-01-25T23:29:09.269Z,99209.13
2023-01-25T23:31:36.194Z,99204.78
2023-01-25T23:34:04.991Z,99202.41
2023-01-25T23:36:38.804Z,99197.03
2023-01-25T23:39:05.606Z,99187.03
2023-01-25T23:41:32.382Z,99200.53
2023-01-25T23:43:59.745Z,99197.03
2023-01-25T23:46:28.121Z,99195.25
2023-01-25T23:48:55.062Z,99196.19
2023-01-25T23:51:21.649Z,99188.44
2023-01-25T23:53:48.320Z,99175.44
2023-01-25T23:56:21.017Z,99179.28
2023-01-25T23:58:50.727Z,99153.22
